Time;durP1;ratioP1;P1;durP2;ratioP2;P2;SDS_P1;SDS_P2;PMS_P1;PMS_P2;Temp;Humidity;BMP_temperature;BMP_pressure;BME280_temperature;BME280_humidity;BME280_pressure;Samples;Min_cycle;Max_cycle;Signal;HPM_P1;HPM_P2
2024/01/04 00:02:04;;;;;;;10.95;2.42;;;;;;;;;;5012888;28;20034;-80
2024/01/04 00:04:29;;;;;;;9.48;2.30;;;;;;;;;;5012539;28;20068;-78
2024/01/04 00:06:54;;;;;;;28.30;3.28;;;;;;;;;;5012490;28;20026;-80
2024/01/04 00:09:20;;;;;;;16.35;2.38;;;;;;;;;;5010885;28;20099;-80
2024/01/04 00:11:45;;;;;;;9.68;2.30;;;;;;;;;;5012330;28;20478;-79
2024/01/04 00:14:11;;;;;;;13.55;2.97;;;;;;;;;;5012661;28;20453;-80
2024/01/04 00:16:36;;;;;;;11.88;2.67;;;;;;;;;;5012799;28;20610;-79
2024/01/04 00:19:03;;;;;;;12.70;3.00;;;;;;;;;;5012446;28;20021;-80
2024/01/04 00:21:28;;;;;;;13.43;2.80;;;;;;;;;;5011846;28;20457;-79
2024/01/04 00:23:53;;;;;;;15.93;3.42;;;;;;;;;;5011957;28;20124;-79
2024/01/04 00:26:18;;;;;;;9.20;2.63;;;;;;;;;;5012273;28;20061;-78
2024/01/04 00:28:44;;;;;;;8.10;3.00;;;;;;;;;;5012592;28;20183;-79
2024/01/04 00:31:09;;;;;;;19.40;3.15;;;;;;;;;;5012109;28;20117;-79
2024/01/04 00:33:34;;;;;;;18.30;3.83;;;;;;;;;;5012559;28;20038;-80
2024/01/04 00:35:59;;;;;;;12.73;3.97;;;;;;;;;;5010661;28;20118;-79
2024/01/04 00:38:25;;;;;;;19.75;4.18;;;;;;;;;;5011852;28;20450;-81
2024/01/04 00:40:50;;;;;;;15.43;3.78;;;;;;;;;;5010617;28;20042;-80
2024/01/04 00:43:15;;;;;;;15.43;3.95;;;;;;;;;;5010489;28;20026;-79
2024/01/04 00:45:40;;;;;;;18.20;3.97;;;;;;;;;;5010642;28;20032;-79
2024/01/04 00:48:06;;;;;;;12.20;2.83;;;;;;;;;;5010550;28;20026;-78
2024/01/04 00:50:31;;;;;;;13.38;2.72;;;;;;;;;;5012510;28;20030;-81
2024/01/04 00:52:57;;;;;;;17.02;2.45;;;;;;;;;;4994380;28;20449;-82
2024/01/04 00:55:23;;;;;;;10.70;2.00;;;;;;;;;;5011915;28;20036;-80
2024/01/04 00:57:48;;;;;;;8.68;1.90;;;;;;;;;;5011900;28;20415;-81
2024/01/04 01:00:13;;;;;;;5.57;2.00;;;;;;;;;;5010718;28;20371;-82
2024/01/04 01:02:38;;;;;;;9.70;2.25;;;;;;;;;;5010283;28;20084;-80
2024/01/04 01:05:04;;;;;;;10.43;2.03;;;;;;;;;;5012181;28;20022;-81
2024/01/04 01:07:29;;;;;;;6.65;1.98;;;;;;;;;;5010775;28;20018;-80
2024/01/04 01:09:57;;;;;;;13.50;2.40;;;;;;;;;;5010090;28;20109;-82
2024/01/04 01:12:22;;;;;;;10.63;2.70;;;;;;;;;;5010404;28;20065;-81
2024/01/04 01:14:47;;;;;;;10.90;2.83;;;;;;;;;;5011618;28;20025;-81
2024/01/04 01:17:13;;;;;;;13.60;3.38;;;;;;;;;;4993900;28;20477;-80
2024/01/04 01:19:39;;;;;;;24.33;4.53;;;;;;;;;;4993781;28;20394;-80
2024/01/04 01:22:04;;;;;;;17.80;4.38;;;;;;;;;;5011302;28;20506;-80
2024/01/04 01:24:29;;;;;;;20.80;4.85;;;;;;;;;;5011180;28;20109;-81
2024/01/04 01:26:55;;;;;;;24.75;4.75;;;;;;;;;;4993550;28;20026;-79
2024/01/04 01:29:20;;;;;;;16.13;4.72;;;;;;;;;;4993733;28;20050;-80
2024/01/04 01:31:45;;;;;;;18.83;4.88;;;;;;;;;;5011171;28;20411;-80
2024/01/04 01:34:10;;;;;;;24.50;5.10;;;;;;;;;;5009458;28;20022;-80
2024/01/04 01:36:39;;;;;;;18.40;4.97;;;;;;;;;;5011094;28;20093;-80
2024/01/04 01:39:05;;;;;;;17.85;4.47;;;;;;;;;;5009602;28;20029;-80
2024/01/04 01:41:30;;;;;;;18.08;4.72;;;;;;;;;;5011158;28;20042;-80
2024/01/04 01:43:55;;;;;;;13.63;4.15;;;;;;;;;;5011344;28;20033;-81
2024/01/04 01:46:21;;;;;;;19.27;4.70;;;;;;;;;;5009550;28;20105;-81
2024/01/04 01:48:46;;;;;;;20.02;4.97;;;;;;;;;;5009652;28;20018;-81
2024/01/04 01:51:13;;;;;;;25.50;5.97;;;;;;;;;;5009554;28;20057;-81
2024/01/04 01:53:38;;;;;;;28.17;5.97;;;;;;;;;;5009561;28;20466;-80
2024/01/04 01:56:04;;;;;;;12.10;5.30;;;;;;;;;;5009426;28;20101;-80
2024/01/04 01:58:29;;;;;;;21.02;5.70;;;;;;;;;;4992994;28;20145;-80
2024/01/04 02:00:55;;;;;;;15.73;5.28;;;;;;;;;;5009645;28;20033;-82
2024/01/04 02:03:20;;;;;;;18.20;5.97;;;;;;;;;;5009089;28;20061;-79
2024/01/04 02:05:45;;;;;;;14.35;4.82;;;;;;;;;;4993370;28;20473;-79
2024/01/04 02:08:10;;;;;;;18.70;5.38;;;;;;;;;;5010941;28;20026;-81
2024/01/04 02:10:36;;;;;;;15.00;4.90;;;;;;;;;;5009397;28;20030;-81
2024/01/04 02:13:01;;;;;;;17.17;4.75;;;;;;;;;;5010021;28;20038;-80
2024/01/04 02:15:26;;;;;;;17.13;4.38;;;;;;;;;;5009995;28;20026;-80
2024/01/04 02:17:51;;;;;;;11.68;3.70;;;;;;;;;;5011613;28;20045;-80
2024/01/04 02:20:17;;;;;;;14.25;3.80;;;;;;;;;;5011358;28;20211;-80
2024/01/04 02:22:45;;;;;;;11.82;2.70;;;;;;;;;;5009606;28;20489;-79
2024/01/04 02:25:10;;;;;;;6.85;2.08;;;;;;;;;;5011530;28;20101;-80
2024/01/04 02:27:36;;;;;;;10.32;1.95;;;;;;;;;;5010707;28;20129;-80
2024/01/04 02:30:01;;;;;;;11.88;1.90;;;;;;;;;;5009690;28;20459;-80
2024/01/04 02:32:26;;;;;;;8.23;1.80;;;;;;;;;;5010833;28;20479;-80
2024/01/04 02:34:51;;;;;;;12.00;1.98;;;;;;;;;;5009509;28;20061;-79
2024/01/04 02:37:17;;;;;;;7.53;2.03;;;;;;;;;;5011175;28;20025;-79
2024/01/04 02:39:42;;;;;;;9.57;1.70;;;;;;;;;;5009183;28;20057;-79
2024/01/04 02:42:07;;;;;;;12.68;1.75;;;;;;;;;;5011108;28;20041;-79
2024/01/04 02:44:32;;;;;;;11.90;1.95;;;;;;;;;;4995458;28;20466;-80
2024/01/04 02:46:58;;;;;;;10.45;1.85;;;;;;;;;;5014732;28;20105;-80
2024/01/04 02:49:23;;;;;;;8.35;1.80;;;;;;;;;;5014858;28;20447;-79
2024/01/04 02:51:48;;;;;;;9.40;1.80;;;;;;;;;;5014143;28;20466;-79
2024/01/04 02:54:13;;;;;;;5.85;1.60;;;;;;;;;;5014194;28;20407;-79
2024/01/04 02:56:39;;;;;;;12.07;1.95;;;;;;;;;;5014440;28;20030;-79
2024/01/04 02:59:04;;;;;;;12.35;3.00;;;;;;;;;;5012430;28;20042;-79
2024/01/04 03:01:30;;;;;;;8.48;2.40;;;;;;;;;;5014094;28;20026;-79
2024/01/04 03:03:55;;;;;;;10.40;3.00;;;;;;;;;;5012904;28;20029;-78
2024/01/04 03:06:30;;;;;;;16.92;5.10;;;;;;;;;;5013795;28;20105;-79
2024/01/04 03:08:58;;;;;;;18.38;5.55;;;;;;;;;;5014282;28;20517;-80
2024/01/04 03:11:23;;;;;;;19.65;5.57;;;;;;;;;;5014219;28;20026;-80
2024/01/04 03:13:49;;;;;;;19.50;6.20;;;;;;;;;;5012864;28;20195;-79
2024/01/04 03:16:15;;;;;;;15.95;5.88;;;;;;;;;;5014041;28;20102;-80
2024/01/04 03:18:40;;;;;;;16.70;6.00;;;;;;;;;;5014022;28;20109;-81
2024/01/04 03:21:05;;;;;;;26.35;6.38;;;;;;;;;;5013697;28;20030;-79
2024/01/04 03:23:30;;;;;;;13.50;4.75;;;;;;;;;;5013675;28;20014;-79
2024/01/04 03:25:56;;;;;;;20.65;4.90;;;;;;;;;;5012406;28;20483;-80
2024/01/04 03:28:21;;;;;;;20.00;4.78;;;;;;;;;;5013035;28;20022;-80
2024/01/04 03:30:46;;;;;;;20.25;4.60;;;;;;;;;;5013960;28;20516;-82
2024/01/04 03:33:11;;;;;;;17.60;4.97;;;;;;;;;;5012084;28;20038;-81
2024/01/04 03:35:37;;;;;;;15.90;4.40;;;;;;;;;;5013839;28;20030;-81
2024/01/04 03:38:02;;;;;;;19.65;5.20;;;;;;;;;;5014231;28;20028;-83
2024/01/04 03:40:27;;;;;;;15.38;3.90;;;;;;;;;;5013545;28;20058;-81
2024/01/04 03:42:53;;;;;;;20.65;4.60;;;;;;;;;;5012280;28;20026;-80
2024/01/04 03:45:18;;;;;;;13.93;4.35;;;;;;;;;;5013360;28;20374;-80
2024/01/04 03:47:43;;;;;;;14.43;4.35;;;;;;;;;;5013000;28;20025;-80
2024/01/04 03:50:09;;;;;;;14.05;4.20;;;;;;;;;;5013870;28;20089;-80
2024/01/04 03:52:35;;;;;;;12.10;4.18;;;;;;;;;;5011858;28;20105;-81
2024/01/04 03:55:00;;;;;;;14.27;4.03;;;;;;;;;;5012875;28;20113;-80
2024/01/04 03:57:25;;;;;;;8.57;3.78;;;;;;;;;;5012970;28;20076;-81
2024/01/04 03:59:51;;;;;;;13.88;4.10;;;;;;;;;;5013011;28;20018;-81
2024/01/04 04:02:16;;;;;;;12.27;3.72;;;;;;;;;;5012469;28;20072;-81
2024/01/04 04:04:41;;;;;;;16.95;4.07;;;;;;;;;;5011879;28;20017;-82
2024/01/04 04:07:06;;;;;;;14.40;3.83;;;;;;;;;;5012215;28;20415;-82
2024/01/04 04:09:32;;;;;;;22.90;4.75;;;;;;;;;;5012849;28;20026;-82
2024/01/04 04:11:57;;;;;;;14.75;4.10;;;;;;;;;;5012465;28;20077;-81
2024/01/04 04:14:22;;;;;;;11.82;3.28;;;;;;;;;;5011349;28;20411;-81
2024/01/04 04:16:47;;;;;;;11.52;3.70;;;;;;;;;;5011449;28;20061;-81
2024/01/04 04:19:13;;;;;;;12.98;3.30;;;;;;;;;;5011402;28;20029;-81
2024/01/04 04:21:38;;;;;;;16.60;3.35;;;;;;;;;;5011009;28;20033;-81
2024/01/04 04:24:03;;;;;;;23.25;3.85;;;;;;;;;;4994718;28;20458;-81
2024/01/04 04:26:28;;;;;;;10.05;3.65;;;;;;;;;;5012621;28;20021;-80
2024/01/04 04:28:54;;;;;;;12.05;3.65;;;;;;;;;;5012172;28;20049;-81
2024/01/04 04:31:19;;;;;;;10.50;3.63;;;;;;;;;;5012454;28;20136;-80
2024/01/04 04:33:46;;;;;;;8.88;2.85;;;;;;;;;;5012570;28;20094;-80
2024/01/04 04:36:12;;;;;;;14.32;3.58;;;;;;;;;;5011210;28;20022;-80
2024/01/04 04:38:37;;;;;;;10.93;3.10;;;;;;;;;;5013112;28;20133;-79
2024/01/04 04:41:03;;;;;;;15.10;3.55;;;;;;;;;;5012469;28;20439;-79
2024/01/04 04:43:29;;;;;;;10.82;4.10;;;;;;;;;;5011699;28;20025;-80
2024/01/04 04:45:55;;;;;;;11.90;3.80;;;;;;;;;;4994660;28;20022;-78
2024/01/04 04:48:20;;;;;;;12.48;3.83;;;;;;;;;;5010752;28;20045;-80
2024/01/04 04:50:45;;;;;;;15.65;4.18;;;;;;;;;;5010862;28;20048;-80
2024/01/04 04:53:10;;;;;;;14.93;4.50;;;;;;;;;;5012617;28;20096;-79
2024/01/04 04:55:36;;;;;;;12.00;3.03;;;;;;;;;;5011028;28;20426;-80
2024/01/04 04:58:01;;;;;;;9.43;2.40;;;;;;;;;;5010881;28;20674;-79
2024/01/04 05:00:27;;;;;;;7.90;2.58;;;;;;;;;;5011740;28;20761;-80
2024/01/04 05:02:52;;;;;;;7.97;2.08;;;;;;;;;;5012129;28;20411;-80
2024/01/04 05:05:17;;;;;;;10.75;2.33;;;;;;;;;;5010909;28;20029;-80
2024/01/04 05:07:42;;;;;;;14.90;2.20;;;;;;;;;;5011139;28;20100;-80
2024/01/04 05:10:08;;;;;;;12.00;2.10;;;;;;;;;;5011582;28;20265;-80
2024/01/04 05:12:33;;;;;;;12.38;2.70;;;;;;;;;;5010517;28;20037;-79
2024/01/04 05:14:59;;;;;;;15.73;3.30;;;;;;;;;;5012538;28;20030;-80
2024/01/04 05:17:25;;;;;;;9.48;2.90;;;;;;;;;;5011629;28;20354;-81
2024/01/04 05:19:50;;;;;;;8.82;3.10;;;;;;;;;;5010589;28;20038;-80
2024/01/04 05:22:15;;;;;;;12.98;3.08;;;;;;;;;;5012156;28;20168;-79
2024/01/04 05:24:41;;;;;;;11.50;2.72;;;;;;;;;;5011809;28;20050;-79
2024/01/04 05:27:06;;;;;;;8.52;2.67;;;;;;;;;;5011597;28;20467;-80
2024/01/04 05:29:31;;;;;;;8.73;3.10;;;;;;;;;;5011915;28;20398;-81
2024/01/04 05:31:56;;;;;;;9.95;3.00;;;;;;;;;;5012082;28;20368;-80
2024/01/04 05:34:22;;;;;;;15.27;3.00;;;;;;;;;;5011752;28;20026;-80
2024/01/04 05:36:47;;;;;;;13.93;3.28;;;;;;;;;;5011431;28;20028;-80
2024/01/04 05:39:12;;;;;;;14.48;3.17;;;;;;;;;;5010365;28;20022;-81
2024/01/04 05:41:38;;;;;;;11.73;2.97;;;;;;;;;;5011399;28;20474;-80
2024/01/04 05:44:03;;;;;;;8.77;3.03;;;;;;;;;;5009944;28;20421;-80
2024/01/04 05:46:28;;;;;;;11.57;3.28;;;;;;;;;;5010995;28;20034;-80
2024/01/04 05:48:54;;;;;;;12.45;3.80;;;;;;;;;;5011139;28;20053;-80
2024/01/04 05:51:19;;;;;;;15.93;4.00;;;;;;;;;;5011509;28;20048;-79
2024/01/04 05:53:44;;;;;;;13.80;4.22;;;;;;;;;;5010851;28;20033;-80
2024/01/04 05:56:10;;;;;;;29.05;5.10;;;;;;;;;;5011504;28;20030;-79
2024/01/04 05:58:35;;;;;;;16.30;4.10;;;;;;;;;;5011277;28;20083;-79
2024/01/04 06:01:00;;;;;;;13.07;3.67;;;;;;;;;;5009630;28;20624;-80
2024/01/04 06:03:25;;;;;;;21.95;5.57;;;;;;;;;;5012052;28;20030;-79
2024/01/04 06:05:51;;;;;;;14.18;3.50;;;;;;;;;;5010459;28;20068;-80
2024/01/04 06:08:16;;;;;;;15.38;3.75;;;;;;;;;;5010251;28;20080;-80
2024/01/04 06:10:42;;;;;;;22.13;4.25;;;;;;;;;;5011143;28;20473;-80
2024/01/04 06:13:07;;;;;;;16.08;4.03;;;;;;;;;;5010682;28;20042;-80
2024/01/04 06:15:32;;;;;;;12.07;3.55;;;;;;;;;;5010867;28;20037;-81
2024/01/04 06:17:58;;;;;;;20.17;3.78;;;;;;;;;;5011096;28;20308;-79
2024/01/04 06:20:23;;;;;;;19.13;4.55;;;;;;;;;;5014503;28;20530;-79
2024/01/04 06:22:50;;;;;;;15.73;4.68;;;;;;;;;;5014881;28;20022;-79
2024/01/04 06:25:15;;;;;;;12.85;2.85;;;;;;;;;;5015101;28;20109;-79
2024/01/04 06:27:41;;;;;;;17.05;3.10;;;;;;;;;;5014907;28;20252;-78
2024/01/04 06:30:06;;;;;;;13.32;3.40;;;;;;;;;;5013241;28;20068;-78
2024/01/04 06:32:31;;;;;;;12.48;3.35;;;;;;;;;;5014844;28;20033;-80
2024/01/04 06:34:57;;;;;;;12.43;3.15;;;;;;;;;;5014384;28;20435;-79
2024/01/04 06:37:22;;;;;;;9.07;2.45;;;;;;;;;;5013179;28;20429;-79
2024/01/04 06:39:49;;;;;;;2.90;1.48;;;;;;;;;;5013776;28;20033;-79
2024/01/04 06:42:14;;;;;;;4.72;1.40;;;;;;;;;;5012960;28;20037;-78
2024/01/04 06:44:40;;;;;;;10.43;1.00;;;;;;;;;;5013323;28;20026;-79
2024/01/04 06:47:05;;;;;;;1.50;0.70;;;;;;;;;;5012940;28;20057;-78
2024/01/04 06:49:30;;;;;;;6.25;1.20;;;;;;;;;;5012280;28;20377;-79
2024/01/04 06:51:55;;;;;;;2.53;1.10;;;;;;;;;;5013003;28;20037;-78
2024/01/04 06:54:21;;;;;;;3.55;1.13;;;;;;;;;;5014518;28;20033;-79
2024/01/04 06:56:46;;;;;;;7.45;1.80;;;;;;;;;;5014278;28;20018;-78
2024/01/04 06:59:12;;;;;;;5.55;1.90;;;;;;;;;;5014359;28;20156;-79
2024/01/04 07:01:37;;;;;;;3.92;1.58;;;;;;;;;;5013443;28;20018;-78
2024/01/04 07:04:02;;;;;;;8.52;1.70;;;;;;;;;;5013520;28;20510;-79
2024/01/04 07:06:27;;;;;;;6.35;1.50;;;;;;;;;;5013004;28;20108;-80
2024/01/04 07:08:53;;;;;;;8.82;1.75;;;;;;;;;;5013410;28;20422;-79
2024/01/04 07:11:18;;;;;;;5.72;2.00;;;;;;;;;;5012425;28;20022;-79
2024/01/04 07:13:43;;;;;;;14.65;2.05;;;;;;;;;;5012797;28;20022;-79
2024/01/04 07:16:09;;;;;;;5.57;1.95;;;;;;;;;;5012735;28;20106;-79
2024/01/04 07:18:35;;;;;;;7.20;1.67;;;;;;;;;;5013385;28;20022;-80
2024/01/04 07:21:00;;;;;;;14.07;1.90;;;;;;;;;;5012927;28;20022;-80
2024/01/04 07:23:25;;;;;;;12.20;1.90;;;;;;;;;;4995324;28;20066;-79
2024/01/04 07:25:51;;;;;;;6.05;1.58;;;;;;;;;;5013539;28;20056;-79
2024/01/04 07:28:16;;;;;;;5.57;1.80;;;;;;;;;;5012038;28;20065;-81
2024/01/04 07:30:41;;;;;;;12.00;2.03;;;;;;;;;;5012548;28;20089;-80
2024/01/04 07:33:07;;;;;;;12.60;2.08;;;;;;;;;;5013439;28;20103;-79
2024/01/04 07:35:32;;;;;;;9.38;2.10;;;;;;;;;;5012371;28;20029;-79
2024/01/04 07:37:59;;;;;;;15.88;1.90;;;;;;;;;;5011479;28;20032;-83
2024/01/04 07:40:24;;;;;;;13.70;2.13;;;;;;;;;;5012903;28;20032;-79
2024/01/04 07:42:49;;;;;;;7.35;1.80;;;;;;;;;;5012899;28;20034;-79
2024/01/04 07:45:14;;;;;;;7.47;1.80;;;;;;;;;;5013077;28;20030;-78
2024/01/04 07:47:40;;;;;;;9.10;1.40;;;;;;;;;;5013356;28;20088;-79
2024/01/04 07:50:05;;;;;;;20.88;2.85;;;;;;;;;;5012793;28;20080;-79
2024/01/04 07:52:30;;;;;;;8.10;1.50;;;;;;;;;;5011940;28;20125;-78
2024/01/04 07:54:56;;;;;;;13.02;1.60;;;;;;;;;;5013461;28;20347;-78
2024/01/04 07:57:21;;;;;;;7.93;1.63;;;;;;;;;;5012943;28;20032;-78
2024/01/04 07:59:46;;;;;;;8.45;1.20;;;;;;;;;;5013436;28;20073;-80
2024/01/04 08:02:12;;;;;;;7.40;1.42;;;;;;;;;;5011961;28;20382;-77
2024/01/04 08:04:37;;;;;;;11.20;1.63;;;;;;;;;;5010205;28;20411;-77
2024/01/04 08:07:02;;;;;;;7.55;1.30;;;;;;;;;;5012645;28;20034;-77
2024/01/04 08:09:28;;;;;;;10.48;1.50;;;;;;;;;;5012445;28;20032;-80
2024/01/04 08:11:53;;;;;;;11.20;1.83;;;;;;;;;;5012764;28;20096;-80
2024/01/04 08:14:18;;;;;;;10.57;1.55;;;;;;;;;;5012633;28;20524;-81
2024/01/04 08:16:43;;;;;;;4.97;1.35;;;;;;;;;;5012799;28;20018;-79
2024/01/04 08:19:08;;;;;;;10.30;1.73;;;;;;;;;;5012349;28;20018;-79
2024/01/04 08:21:34;;;;;;;11.07;1.83;;;;;;;;;;5011117;28;20038;-79
2024/01/04 08:23:59;;;;;;;11.15;1.95;;;;;;;;;;5012435;28;20316;-80
2024/01/04 08:26:25;;;;;;;9.30;1.67;;;;;;;;;;5012249;28;20025;-79
2024/01/04 08:28:50;;;;;;;13.05;1.88;;;;;;;;;;5012140;28;20053;-80
2024/01/04 08:31:16;;;;;;;26.23;2.30;;;;;;;;;;5011791;28;20030;-80
2024/01/04 08:33:41;;;;;;;10.05;1.75;;;;;;;;;;5010769;28;20045;-79
2024/01/04 08:36:06;;;;;;;14.20;1.90;;;;;;;;;;5010621;28;20377;-81
2024/01/04 08:38:31;;;;;;;11.85;1.73;;;;;;;;;;5011947;28;20036;-79
2024/01/04 08:40:57;;;;;;;8.27;1.67;;;;;;;;;;5011820;28;20037;-81
2024/01/04 08:43:22;;;;;;;4.90;1.65;;;;;;;;;;5010160;28;20037;-78
2024/01/04 08:45:49;;;;;;;10.75;1.42;;;;;;;;;;5011798;28;20017;-77
2024/01/04 08:48:15;;;;;;;9.13;1.35;;;;;;;;;;5012667;28;20205;-80
2024/01/04 08:50:40;;;;;;;6.53;1.60;;;;;;;;;;5012135;28;20164;-82
2024/01/04 08:53:05;;;;;;;8.60;1.30;;;;;;;;;;5010233;28;20025;-82
2024/01/04 08:55:30;;;;;;;9.63;1.40;;;;;;;;;;5010219;28;20335;-80
2024/01/04 08:57:56;;;;;;;6.70;2.08;;;;;;;;;;5011813;28;20106;-80
2024/01/04 09:00:21;;;;;;;5.40;1.63;;;;;;;;;;5011028;28;20064;-81
2024/01/04 09:02:47;;;;;;;8.25;1.40;;;;;;;;;;5011708;28;20103;-82
2024/01/04 09:05:12;;;;;;;11.13;2.08;;;;;;;;;;5011926;28;20509;-78
2024/01/04 09:07:37;;;;;;;6.43;1.70;;;;;;;;;;5011694;28;20053;-79
2024/01/04 09:10:03;;;;;;;8.52;1.58;;;;;;;;;;5011768;28;20137;-79
2024/01/04 09:12:28;;;;;;;7.28;1.35;;;;;;;;;;5011904;28;20496;-79
2024/01/04 09:14:53;;;;;;;10.57;1.40;;;;;;;;;;5011743;28;20053;-80
2024/01/04 09:17:19;;;;;;;9.45;1.45;;;;;;;;;;5011706;28;20514;-80
2024/01/04 09:19:44;;;;;;;10.57;1.85;;;;;;;;;;5011867;28;20018;-78
2024/01/04 09:22:10;;;;;;;10.25;1.35;;;;;;;;;;5011284;28;20493;-80
2024/01/04 09:24:35;;;;;;;8.27;1.50;;;;;;;;;;5011516;28;20049;-78
2024/01/04 09:27:00;;;;;;;8.50;1.50;;;;;;;;;;5011274;28;20119;-77
2024/01/04 09:29:26;;;;;;;7.03;1.55;;;;;;;;;;5010836;28;20037;-79
2024/01/04 09:31:51;;;;;;;14.50;1.70;;;;;;;;;;5011535;28;20026;-79
2024/01/04 09:34:16;;;;;;;13.98;2.10;;;;;;;;;;4993226;28;20018;-78
2024/01/04 09:36:41;;;;;;;6.30;1.73;;;;;;;;;;5010037;28;20109;-79
2024/01/04 09:39:07;;;;;;;8.02;1.40;;;;;;;;;;5011556;28;20106;-79
2024/01/04 09:41:33;;;;;;;9.05;1.50;;;;;;;;;;5010842;28;20066;-79
2024/01/04 09:44:01;;;;;;;6.90;1.77;;;;;;;;;;5011253;28;20022;-79
2024/01/04 09:46:29;;;;;;;9.73;1.50;;;;;;;;;;5011331;28;20045;-79
2024/01/04 09:48:57;;;;;;;9.25;1.60;;;;;;;;;;5011171;28;20026;-77
2024/01/04 09:51:23;;;;;;;9.32;1.73;;;;;;;;;;5009534;28;20501;-78
2024/01/04 09:53:50;;;;;;;4.15;0.95;;;;;;;;;;5010380;28;20173;-78
2024/01/04 09:56:17;;;;;;;9.13;0.95;;;;;;;;;;5009644;28;20036;-78
2024/01/04 09:58:43;;;;;;;3.30;0.75;;;;;;;;;;5010852;28;20160;-78
2024/01/04 10:01:09;;;;;;;4.20;1.02;;;;;;;;;;5009206;28;20110;-79
2024/01/04 10:03:35;;;;;;;3.35;0.80;;;;;;;;;;5010720;28;20022;-79
2024/01/04 10:06:02;;;;;;;1.23;0.63;;;;;;;;;;5010916;28;20068;-78
2024/01/04 10:08:33;;;;;;;6.32;1.02;;;;;;;;;;5010363;28;20022;-79
2024/01/04 10:11:02;;;;;;;4.10;1.17;;;;;;;;;;5010794;28;20033;-79
2024/01/04 10:13:29;;;;;;;4.18;1.08;;;;;;;;;;5010492;28;20108;-80
2024/01/04 10:15:54;;;;;;;6.25;1.15;;;;;;;;;;5010803;28;20022;-79
2024/01/04 10:18:20;;;;;;;7.82;1.23;;;;;;;;;;4993101;28;20117;-80
2024/01/04 10:21:05;;;;;;;1.02;0.70;;;;;;;;;;5010555;28;20030;-79
2024/01/04 10:23:30;;;;;;;2.97;0.80;;;;;;;;;;5010600;28;20026;-80
2024/01/04 10:26:13;;;;;;;6.18;1.27;;;;;;;;;;5010623;28;20030;-79
2024/01/04 10:28:39;;;;;;;1.98;0.70;;;;;;;;;;5010581;28;20032;-78
2024/01/04 10:31:08;;;;;;;10.38;1.35;;;;;;;;;;5010577;28;20370;-78
2024/01/04 10:33:33;;;;;;;6.43;1.10;;;;;;;;;;5010501;28;20067;-78
2024/01/04 10:36:06;;;;;;;6.43;1.33;;;;;;;;;;5010361;28;20117;-78
2024/01/04 10:38:36;;;;;;;6.80;1.08;;;;;;;;;;5010210;28;20095;-79
2024/01/04 10:41:04;;;;;;;6.68;1.33;;;;;;;;;;5010648;28;20025;-79
2024/01/04 10:43:30;;;;;;;6.30;1.20;;;;;;;;;;5008868;28;20022;-78
2024/01/04 10:46:07;;;;;;;13.45;1.50;;;;;;;;;;5010470;28;20079;-78
2024/01/04 10:48:33;;;;;;;8.93;1.77;;;;;;;;;;5009081;28;20018;-78
2024/01/04 10:51:02;;;;;;;8.75;1.40;;;;;;;;;;5010634;28;20026;-80
2024/01/04 10:53:30;;;;;;;10.13;1.38;;;;;;;;;;5010018;28;20056;-79
2024/01/04 10:55:56;;;;;;;8.43;1.63;;;;;;;;;;5009514;28;20169;-80
2024/01/04 10:58:23;;;;;;;6.53;1.40;;;;;;;;;;5009819;28;20537;-80
2024/01/04 11:00:49;;;;;;;9.95;1.48;;;;;;;;;;5010382;28;20060;-80
2024/01/04 11:03:14;;;;;;;4.32;0.90;;;;;;;;;;5009041;28;20401;-83
2024/01/04 11:05:40;;;;;;;8.02;1.40;;;;;;;;;;5010852;28;20025;-78
2024/01/04 11:08:06;;;;;;;4.80;1.48;;;;;;;;;;5014056;28;20018;-79
2024/01/04 11:10:32;;;;;;;8.68;1.48;;;;;;;;;;5012379;28;20483;-81
2024/01/04 11:12:58;;;;;;;6.28;1.67;;;;;;;;;;5013442;28;20029;-82
2024/01/04 11:15:23;;;;;;;6.18;1.20;;;;;;;;;;5012325;28;20081;-82
2024/01/04 11:17:58;;;;;;;7.88;1.35;;;;;;;;;;5013973;28;20022;-77
2024/01/04 11:20:49;;;;;;;7.65;1.25;;;;;;;;;;5013789;28;20042;-77
2024/01/04 11:23:24;;;;;;;15.80;1.77;;;;;;;;;;5010056;28;20042;-77
2024/01/04 11:26:09;;;;;;;4.68;1.10;;;;;;;;;;5013724;28;20116;-76
2024/01/04 11:28:34;;;;;;;6.57;1.77;;;;;;;;;;5013009;28;20416;-78
2024/01/04 11:31:00;;;;;;;4.85;1.30;;;;;;;;;;5013676;28;20025;-78
2024/01/04 11:33:28;;;;;;;6.78;1.30;;;;;;;;;;5013546;28;20033;-77
2024/01/04 11:35:53;;;;;;;5.30;1.40;;;;;;;;;;5011657;28;20060;-77
2024/01/04 11:38:30;;;;;;;3.17;1.08;;;;;;;;;;5013548;28;20428;-78
2024/01/04 11:40:56;;;;;;;9.73;1.10;;;;;;;;;;5013288;28;20443;-78
2024/01/04 11:43:22;;;;;;;4.85;1.15;;;;;;;;;;5012323;28;20037;-78
2024/01/04 11:45:47;;;;;;;3.58;1.13;;;;;;;;;;5013457;28;20025;-79
2024/01/04 11:48:13;;;;;;;4.82;1.20;;;;;;;;;;5013567;28;20347;-77
2024/01/04 11:50:50;;;;;;;3.55;1.13;;;;;;;;;;5013317;28;20093;-77
2024/01/04 11:53:18;;;;;;;8.23;1.15;;;;;;;;;;5013159;28;20026;-78
2024/01/04 11:55:44;;;;;;;4.20;1.27;;;;;;;;;;5012878;28;20094;-77
2024/01/04 11:58:13;;;;;;;8.30;1.73;;;;;;;;;;5012882;28;20518;-78
2024/01/04 12:00:40;;;;;;;4.38;1.10;;;;;;;;;;5013952;28;20478;-77
2024/01/04 12:03:14;;;;;;;4.63;1.40;;;;;;;;;;5013243;28;20048;-78
2024/01/04 12:05:44;;;;;;;5.88;1.38;;;;;;;;;;5013209;28;20057;-78
2024/01/04 12:08:09;;;;;;;10.60;1.90;;;;;;;;;;5013141;28;20026;-78
2024/01/04 12:10:34;;;;;;;8.35;1.38;;;;;;;;;;5012932;28;20041;-79
2024/01/04 12:12:59;;;;;;;7.87;1.67;;;;;;;;;;5012912;28;20441;-79
2024/01/04 12:15:25;;;;;;;7.25;1.77;;;;;;;;;;5013180;28;20761;-79
2024/01/04 12:17:50;;;;;;;11.57;2.00;;;;;;;;;;5012225;28;20428;-78
2024/01/04 12:20:15;;;;;;;12.13;1.83;;;;;;;;;;5012926;28;20033;-78
2024/01/04 12:22:40;;;;;;;5.10;1.27;;;;;;;;;;5012730;28;20057;-78
2024/01/04 12:25:06;;;;;;;11.98;1.70;;;;;;;;;;5011295;28;20052;-79
2024/01/04 12:27:32;;;;;;;5.05;1.70;;;;;;;;;;5013035;28;20026;-80
2024/01/04 12:29:57;;;;;;;8.50;2.53;;;;;;;;;;5012880;28;20367;-79
2024/01/04 12:32:23;;;;;;;2.35;1.10;;;;;;;;;;5012742;28;20026;-77
2024/01/04 12:34:49;;;;;;;4.47;1.20;;;;;;;;;;5012346;28;20426;-78
2024/01/04 12:37:16;;;;;;;2.55;0.80;;;;;;;;;;5010858;28;20049;-78
2024/01/04 12:39:41;;;;;;;5.60;1.13;;;;;;;;;;5012067;28;20030;-78
2024/01/04 12:42:06;;;;;;;4.63;1.25;;;;;;;;;;5012126;28;20029;-78
2024/01/04 12:44:32;;;;;;;1.58;0.70;;;;;;;;;;5012284;28;20021;-78
2024/01/04 12:47:04;;;;;;;3.45;0.98;;;;;;;;;;5012073;28;20025;-81
2024/01/04 12:49:30;;;;;;;2.38;1.02;;;;;;;;;;5012143;28;20409;-79
2024/01/04 12:51:55;;;;;;;8.88;1.20;;;;;;;;;;5011758;28;20120;-79
2024/01/04 12:54:21;;;;;;;7.15;1.10;;;;;;;;;;5012064;28;20371;-80
2024/01/04 12:56:46;;;;;;;4.80;1.60;;;;;;;;;;5012385;28;20025;-79
2024/01/04 12:59:12;;;;;;;5.72;1.65;;;;;;;;;;5012228;28;20049;-79
2024/01/04 13:01:38;;;;;;;8.23;1.92;;;;;;;;;;5010623;28;20436;-79
2024/01/04 13:04:03;;;;;;;12.70;2.22;;;;;;;;;;5011062;28;20045;-80
2024/01/04 13:06:28;;;;;;;16.40;1.80;;;;;;;;;;5012287;28;20128;-79
2024/01/04 13:08:56;;;;;;;11.40;1.92;;;;;;;;;;5011781;28;20093;-79
2024/01/04 13:11:22;;;;;;;8.05;1.80;;;;;;;;;;5010545;28;20041;-81
2024/01/04 13:13:50;;;;;;;6.90;1.70;;;;;;;;;;5011793;28;20058;-80
2024/01/04 13:16:16;;;;;;;14.05;2.40;;;;;;;;;;5011594;28;20096;-80
2024/01/04 13:18:41;;;;;;;20.38;2.58;;;;;;;;;;5011564;28;20045;-79
2024/01/04 13:21:07;;;;;;;8.35;1.70;;;;;;;;;;5011721;28;20355;-80
2024/01/04 13:23:32;;;;;;;15.10;2.08;;;;;;;;;;5011868;28;20084;-80
2024/01/04 13:25:58;;;;;;;13.82;2.30;;;;;;;;;;5011916;28;20072;-82
2024/01/04 13:28:23;;;;;;;10.50;2.42;;;;;;;;;;5010663;28;20434;-77
2024/01/04 13:30:48;;;;;;;17.77;2.75;;;;;;;;;;5011726;28;20030;-81
2024/01/04 13:33:14;;;;;;;13.97;2.30;;;;;;;;;;5012130;28;20128;-84
2024/01/04 13:35:39;;;;;;;17.13;2.63;;;;;;;;;;5010121;28;20357;-78
2024/01/04 13:38:04;;;;;;;12.13;1.80;;;;;;;;;;5011799;28;20018;-81
2024/01/04 13:40:29;;;;;;;13.38;2.65;;;;;;;;;;5011460;28;20474;-82
2024/01/04 13:42:55;;;;;;;19.13;3.20;;;;;;;;;;5010249;28;20029;-81
2024/01/04 13:45:21;;;;;;;17.33;2.30;;;;;;;;;;5011447;28;20032;-82
2024/01/04 13:47:46;;;;;;;22.90;2.83;;;;;;;;;;5011150;28;20024;-81
2024/01/04 13:50:12;;;;;;;18.75;3.00;;;;;;;;;;5011413;28;20108;-82
2024/01/04 13:52:37;;;;;;;12.73;2.13;;;;;;;;;;5011248;28;20109;-81
2024/01/04 13:55:04;;;;;;;10.32;2.03;;;;;;;;;;5009987;28;20017;-82
2024/01/04 13:57:30;;;;;;;27.45;3.03;;;;;;;;;;5011891;28;20026;-81
2024/01/04 13:59:55;;;;;;;26.45;3.28;;;;;;;;;;5011256;28;20068;-82
2024/01/04 14:02:21;;;;;;;18.23;2.63;;;;;;;;;;5011515;28;20408;-81
2024/01/04 14:04:46;;;;;;;14.27;2.50;;;;;;;;;;5010168;28;20384;-81
2024/01/04 14:07:12;;;;;;;17.20;2.10;;;;;;;;;;5009973;28;20527;-83
2024/01/04 14:09:37;;;;;;;12.27;2.13;;;;;;;;;;5011410;28;20382;-80
2024/01/04 14:12:03;;;;;;;14.32;2.83;;;;;;;;;;5011536;28;20044;-81
2024/01/04 14:14:28;;;;;;;18.60;2.55;;;;;;;;;;5011350;28;20426;-81
2024/01/04 14:16:53;;;;;;;18.50;2.42;;;;;;;;;;5011614;28;20034;-80
2024/01/04 14:19:19;;;;;;;17.20;2.47;;;;;;;;;;5009879;28;20038;-83
2024/01/04 14:21:44;;;;;;;17.13;2.42;;;;;;;;;;5009755;28;20269;-82
2024/01/04 14:24:09;;;;;;;20.27;3.33;;;;;;;;;;5011464;28;20045;-81
2024/01/04 14:26:34;;;;;;;22.00;2.53;;;;;;;;;;5011752;28;20026;-81
2024/01/04 14:29:00;;;;;;;18.17;2.50;;;;;;;;;;5010916;28;20265;-80